Terminal Aerodrome Forecast
Issued by NWS

Current Version | Previous Version | Graphics & Text | Print | Product List | Glossary On
Versions: 1 2 3 4 5 6 7 8 9 10 11 12 13 14
092
FTUS41 KPBZ 202346
TAFMGW
TAF
KMGW 202346Z 2100/2124 11008KT P6SM FEW250
     FM210500 13009KT P6SM SCT050
     FM211800 18008KT P6SM -SHRA VCTS OVC025CB
     FM212200 18008KT 5SM -RA BR OVC015=

USA.gov is the U.S. government's official web portal to all federal, state and local government web resources and services.